Time;durP1;ratioP1;P1;durP2;ratioP2;P2;SDS_P1;SDS_P2;PMS_P1;PMS_P2;Temp;Humidity;BMP_temperature;BMP_pressure;BME280_temperature;BME280_humidity;BME280_pressure;Samples;Min_cycle;Max_cycle;Signal;HPM_P1;HPM_P2
2021/05/25 00:01:48;;;;;;;5.90;2.50;;;;;;;;;;5033937;28;20071;-88
2021/05/25 00:04:14;;;;;;;7.55;3.05;;;;;;;;;;5031392;28;20037;-88
2021/05/25 00:06:40;;;;;;;5.40;2.47;;;;;;;;;;5030468;28;20068;-88
2021/05/25 00:09:06;;;;;;;6.28;3.10;;;;;;;;;;5038537;28;20050;-88
2021/05/25 00:11:32;;;;;;;8.32;2.47;;;;;;;;;;5030047;28;20625;-87
2021/05/25 00:13:59;;;;;;;4.10;2.90;;;;;;;;;;5030381;28;20068;-88
2021/05/25 00:16:25;;;;;;;5.32;2.50;;;;;;;;;;5027765;28;20486;-88
2021/05/25 00:18:52;;;;;;;7.60;2.60;;;;;;;;;;5029951;28;20051;-88
2021/05/25 00:21:18;;;;;;;7.95;2.33;;;;;;;;;;5032036;28;20022;-88
2021/05/25 00:23:44;;;;;;;4.47;1.85;;;;;;;;;;5036298;28;20032;-88
2021/05/25 00:26:10;;;;;;;8.48;1.98;;;;;;;;;;5040173;28;20021;-88
2021/05/25 00:28:36;;;;;;;5.00;2.28;;;;;;;;;;5056364;28;20025;-88
2021/05/25 00:31:02;;;;;;;5.47;2.30;;;;;;;;;;5038498;28;20044;-88
2021/05/25 00:33:28;;;;;;;6.22;2.42;;;;;;;;;;5029744;28;20021;-88
2021/05/25 00:35:55;;;;;;;4.65;3.08;;;;;;;;;;5029881;28;20056;-88
2021/05/25 00:38:21;;;;;;;6.50;3.17;;;;;;;;;;5036577;28;20144;-88
2021/05/25 00:40:47;;;;;;;5.57;2.97;;;;;;;;;;5031070;28;20108;-88
2021/05/25 00:43:13;;;;;;;7.95;3.20;;;;;;;;;;5030882;28;20483;-88
2021/05/25 00:45:39;;;;;;;5.18;3.15;;;;;;;;;;5030815;28;20053;-88
2021/05/25 00:48:06;;;;;;;6.63;2.83;;;;;;;;;;5026085;28;20117;-88
2021/05/25 00:50:32;;;;;;;4.40;2.50;;;;;;;;;;5035725;28;20044;-87
2021/05/25 00:53:02;;;;;;;4.70;2.35;;;;;;;;;;5033104;28;20061;-88
2021/05/25 00:55:29;;;;;;;6.47;3.10;;;;;;;;;;5039302;28;20030;-86
2021/05/25 00:57:56;;;;;;;5.70;3.30;;;;;;;;;;5035675;28;20021;-87
2021/05/25 01:00:26;;;;;;;5.38;3.08;;;;;;;;;;5034974;28;20422;-87
2021/05/25 01:02:52;;;;;;;6.05;3.53;;;;;;;;;;5028251;28;20024;-88
2021/05/25 01:05:18;;;;;;;7.93;3.03;;;;;;;;;;5029466;28;20109;-88
2021/05/25 01:07:45;;;;;;;6.85;2.13;;;;;;;;;;5038397;28;20144;-86
2021/05/25 01:10:12;;;;;;;4.43;2.20;;;;;;;;;;5024872;28;20034;-87
2021/05/25 01:12:49;;;;;;;4.95;3.03;;;;;;;;;;5033425;28;20540;-87
2021/05/25 01:15:16;;;;;;;5.25;3.25;;;;;;;;;;5032544;28;20022;-87
2021/05/25 01:17:42;;;;;;;8.48;3.10;;;;;;;;;;5033659;28;20108;-87
2021/05/25 01:20:08;;;;;;;5.10;3.33;;;;;;;;;;5037976;28;20033;-88
2021/05/25 01:22:34;;;;;;;4.53;3.25;;;;;;;;;;5032654;28;20417;-87
2021/05/25 01:25:00;;;;;;;5.43;3.05;;;;;;;;;;5034282;28;20123;-88
2021/05/25 01:27:26;;;;;;;7.05;3.85;;;;;;;;;;5031963;28;20042;-88
2021/05/25 01:29:52;;;;;;;5.72;3.60;;;;;;;;;;5046594;28;20076;-88
2021/05/25 01:32:18;;;;;;;7.45;4.60;;;;;;;;;;5052161;28;20034;-86
2021/05/25 01:34:44;;;;;;;8.35;5.13;;;;;;;;;;5056095;28;20060;-86
2021/05/25 01:37:10;;;;;;;7.13;4.28;;;;;;;;;;5056690;28;20045;-86
2021/05/25 01:39:36;;;;;;;6.90;3.90;;;;;;;;;;5055888;28;20053;-87
2021/05/25 01:42:02;;;;;;;6.00;3.22;;;;;;;;;;5056086;28;20098;-87
2021/05/25 01:44:28;;;;;;;16.85;5.10;;;;;;;;;;5050171;28;20033;-88
2021/05/25 01:46:54;;;;;;;14.48;5.88;;;;;;;;;;5034107;28;20037;-86
2021/05/25 01:49:20;;;;;;;13.25;5.50;;;;;;;;;;5053779;28;20127;-86
2021/05/25 01:51:47;;;;;;;8.13;5.22;;;;;;;;;;5049670;28;20026;-87
2021/05/25 01:54:13;;;;;;;11.23;4.95;;;;;;;;;;5044332;28;20097;-87
2021/05/25 01:56:39;;;;;;;10.60;6.03;;;;;;;;;;5042397;28;20026;-87
2021/05/25 01:59:05;;;;;;;10.48;4.95;;;;;;;;;;5039152;28;20049;-87
2021/05/25 02:01:31;;;;;;;8.05;4.95;;;;;;;;;;5035926;28;20017;-87
2021/05/25 02:03:57;;;;;;;20.60;6.25;;;;;;;;;;5038480;28;20498;-87
2021/05/25 02:06:23;;;;;;;12.10;5.30;;;;;;;;;;5039392;28;20109;-88
2021/05/25 02:08:49;;;;;;;9.98;5.57;;;;;;;;;;5026257;28;20061;-86
2021/05/25 02:11:15;;;;;;;12.00;5.95;;;;;;;;;;5033942;28;20131;-88
2021/05/25 02:13:41;;;;;;;12.93;5.70;;;;;;;;;;5035146;28;20017;-87
2021/05/25 02:16:08;;;;;;;9.43;5.38;;;;;;;;;;5032862;28;20025;-88
2021/05/25 02:18:36;;;;;;;10.85;4.70;;;;;;;;;;5049063;28;20025;-88
2021/05/25 02:21:03;;;;;;;11.67;4.67;;;;;;;;;;5035423;28;20022;-87
2021/05/25 02:23:29;;;;;;;8.80;4.47;;;;;;;;;;5034709;28;20025;-86
2021/05/25 02:25:56;;;;;;;4.70;2.92;;;;;;;;;;5033271;28;20065;-86
2021/05/25 02:28:22;;;;;;;8.18;3.50;;;;;;;;;;5033914;28;20080;-86
2021/05/25 02:30:48;;;;;;;7.35;4.05;;;;;;;;;;5030614;28;20029;-87
2021/05/25 02:33:16;;;;;;;6.15;4.00;;;;;;;;;;5040950;28;20386;-87
2021/05/25 02:35:43;;;;;;;9.80;4.38;;;;;;;;;;5030285;28;20112;-87
2021/05/25 02:38:10;;;;;;;8.50;4.43;;;;;;;;;;5037404;28;20033;-87
2021/05/25 02:40:36;;;;;;;7.82;4.40;;;;;;;;;;5035544;28;20501;-87
2021/05/25 02:43:03;;;;;;;7.07;4.35;;;;;;;;;;5026242;28;20483;-87
2021/05/25 02:45:29;;;;;;;6.20;4.65;;;;;;;;;;5032322;28;20021;-86
2021/05/25 02:47:56;;;;;;;8.68;4.07;;;;;;;;;;5031575;28;20034;-87
2021/05/25 02:50:22;;;;;;;7.55;4.05;;;;;;;;;;5032517;28;20030;-87
2021/05/25 02:52:50;;;;;;;9.02;3.75;;;;;;;;;;5032438;28;20049;-87
2021/05/25 02:55:17;;;;;;;8.23;3.10;;;;;;;;;;5036278;28;20017;-87
2021/05/25 02:57:43;;;;;;;7.70;3.40;;;;;;;;;;5037689;28;20120;-87
2021/05/25 03:00:14;;;;;;;6.32;2.70;;;;;;;;;;5032051;28;20112;-87
2021/05/25 03:02:40;;;;;;;3.22;2.13;;;;;;;;;;5031650;28;20029;-87
2021/05/25 03:05:07;;;;;;;4.72;3.00;;;;;;;;;;5028224;28;20029;-87
2021/05/25 03:07:33;;;;;;;7.68;3.35;;;;;;;;;;5047389;28;20037;-86
2021/05/25 03:09:59;;;;;;;4.85;3.25;;;;;;;;;;5053254;28;20037;-87
2021/05/25 03:12:25;;;;;;;4.53;3.03;;;;;;;;;;5044925;28;20056;-88
2021/05/25 03:14:51;;;;;;;5.63;3.15;;;;;;;;;;5031764;28;20018;-88
2021/05/25 03:17:21;;;;;;;9.50;3.30;;;;;;;;;;5030434;28;20026;-88
2021/05/25 03:19:47;;;;;;;7.22;3.22;;;;;;;;;;5038755;28;20022;-88
2021/05/25 03:22:13;;;;;;;5.55;3.33;;;;;;;;;;5031782;28;20505;-88
2021/05/25 03:24:39;;;;;;;4.15;2.85;;;;;;;;;;5030506;28;20032;-88
2021/05/25 03:27:05;;;;;;;7.13;3.08;;;;;;;;;;5029462;28;20044;-88
2021/05/25 03:29:31;;;;;;;4.32;2.70;;;;;;;;;;5031797;28;20025;-88
2021/05/25 03:31:57;;;;;;;6.07;3.25;;;;;;;;;;5032628;28;20067;-87
2021/05/25 03:34:23;;;;;;;4.60;2.53;;;;;;;;;;5028625;28;20038;-87
2021/05/25 03:36:49;;;;;;;9.65;3.00;;;;;;;;;;5030429;28;20033;-87
2021/05/25 03:39:15;;;;;;;3.63;2.30;;;;;;;;;;5033994;28;20033;-88
2021/05/25 03:41:41;;;;;;;6.40;2.42;;;;;;;;;;5034988;28;20029;-87
2021/05/25 03:44:13;;;;;;;3.22;2.50;;;;;;;;;;5043587;28;20049;-87
2021/05/25 03:46:39;;;;;;;4.22;2.65;;;;;;;;;;5029903;28;20048;-88
2021/05/25 03:49:05;;;;;;;4.22;2.97;;;;;;;;;;5020062;28;20026;-88
2021/05/25 03:51:31;;;;;;;6.38;3.45;;;;;;;;;;5039942;28;20033;-88
2021/05/25 03:53:57;;;;;;;4.68;2.88;;;;;;;;;;5034160;28;20025;-88
2021/05/25 03:56:44;;;;;;;4.80;2.88;;;;;;;;;;5036534;28;20093;-88
2021/05/25 03:59:10;;;;;;;11.13;3.60;;;;;;;;;;5014507;28;20029;-89
2021/05/25 04:01:37;;;;;;;7.18;3.90;;;;;;;;;;5039812;28;20021;-89
2021/05/25 04:04:03;;;;;;;4.97;3.35;;;;;;;;;;5028358;28;20041;-88
2021/05/25 04:06:29;;;;;;;5.78;3.45;;;;;;;;;;5032669;28;20040;-87
2021/05/25 04:08:55;;;;;;;4.60;2.95;;;;;;;;;;4994168;28;1256933;-87
2021/05/25 04:11:21;;;;;;;6.38;3.65;;;;;;;;;;5043109;28;20025;-86
2021/05/25 04:13:47;;;;;;;5.22;3.40;;;;;;;;;;5035147;28;20029;-86
2021/05/25 04:16:13;;;;;;;5.03;3.33;;;;;;;;;;5028960;28;20030;-87
2021/05/25 04:18:40;;;;;;;6.07;3.10;;;;;;;;;;5026132;28;20029;-87
2021/05/25 04:21:06;;;;;;;5.47;3.70;;;;;;;;;;5030322;28;20032;-87
2021/05/25 04:23:32;;;;;;;5.18;3.70;;;;;;;;;;5029034;28;20021;-88
2021/05/25 04:25:58;;;;;;;6.75;3.78;;;;;;;;;;5029730;28;20086;-87
2021/05/25 04:28:24;;;;;;;4.63;2.80;;;;;;;;;;5032033;28;20041;-87
2021/05/25 04:30:50;;;;;;;6.25;3.95;;;;;;;;;;5030139;28;20045;-86
2021/05/25 04:33:16;;;;;;;4.82;3.22;;;;;;;;;;5029677;28;20152;-87
2021/05/25 04:35:42;;;;;;;4.78;3.42;;;;;;;;;;5038384;28;20382;-87
2021/05/25 04:38:08;;;;;;;5.50;3.03;;;;;;;;;;5028521;28;20022;-87
2021/05/25 04:40:35;;;;;;;8.30;4.53;;;;;;;;;;5032049;28;20359;-87
2021/05/25 04:43:01;;;;;;;9.80;5.00;;;;;;;;;;5029223;28;20116;-87
2021/05/25 04:45:28;;;;;;;8.45;4.55;;;;;;;;;;5031839;28;20433;-86
2021/05/25 04:47:53;;;;;;;8.05;4.43;;;;;;;;;;5038464;28;20031;-87
2021/05/25 04:50:20;;;;;;;6.97;2.90;;;;;;;;;;5049409;28;20085;-88
2021/05/25 04:52:47;;;;;;;7.00;3.92;;;;;;;;;;5042590;28;20084;-87
2021/05/25 04:55:14;;;;;;;10.05;3.47;;;;;;;;;;5032654;28;20091;-88
2021/05/25 04:57:41;;;;;;;6.28;3.45;;;;;;;;;;5034379;28;20526;-88
2021/05/25 05:00:08;;;;;;;8.00;2.75;;;;;;;;;;5033940;28;20026;-87
2021/05/25 05:02:34;;;;;;;6.93;3.45;;;;;;;;;;5040037;28;20036;-88
2021/05/25 05:05:00;;;;;;;7.38;3.60;;;;;;;;;;5031624;28;20022;-90
2021/05/25 05:07:26;;;;;;;8.73;4.45;;;;;;;;;;5030344;28;20049;-88
2021/05/25 05:09:52;;;;;;;6.53;4.03;;;;;;;;;;5033878;28;20041;-87
2021/05/25 05:12:18;;;;;;;6.07;3.45;;;;;;;;;;5035277;28;20043;-85
2021/05/25 05:14:44;;;;;;;11.43;3.67;;;;;;;;;;5047521;28;20097;-87
2021/05/25 05:17:10;;;;;;;5.28;3.38;;;;;;;;;;5031587;28;20053;-87
2021/05/25 05:19:36;;;;;;;5.50;3.60;;;;;;;;;;5035524;28;20033;-87
2021/05/25 05:22:02;;;;;;;11.77;3.92;;;;;;;;;;5032897;28;20521;-87
2021/05/25 05:24:28;;;;;;;6.32;3.90;;;;;;;;;;5038068;28;20090;-86
2021/05/25 05:26:54;;;;;;;8.15;3.13;;;;;;;;;;5034198;28;20128;-86
2021/05/25 05:29:20;;;;;;;7.22;3.40;;;;;;;;;;5039841;28;20033;-86
2021/05/25 05:31:46;;;;;;;7.07;3.33;;;;;;;;;;5037515;28;20160;-86
2021/05/25 05:34:13;;;;;;;6.13;3.22;;;;;;;;;;5037606;28;20026;-86
2021/05/25 05:36:39;;;;;;;6.20;2.95;;;;;;;;;;5043743;28;20097;-85
2021/05/25 05:39:05;;;;;;;4.05;2.70;;;;;;;;;;5034177;28;20140;-89
2021/05/25 05:41:32;;;;;;;3.15;2.42;;;;;;;;;;5032427;28;20088;-87
2021/05/25 05:43:58;;;;;;;5.82;2.03;;;;;;;;;;5050880;28;20045;-87
2021/05/25 05:46:24;;;;;;;3.90;1.20;;;;;;;;;;5040274;28;20029;-88
2021/05/25 05:48:50;;;;;;;5.15;1.10;;;;;;;;;;5019808;28;20065;-88
2021/05/25 05:51:16;;;;;;;1.17;0.80;;;;;;;;;;5043231;28;20014;-88
2021/05/25 05:53:42;;;;;;;3.78;0.85;;;;;;;;;;5058074;28;20014;-87
2021/05/25 05:56:08;;;;;;;2.00;0.90;;;;;;;;;;5037684;28;20120;-88
2021/05/25 05:58:34;;;;;;;4.95;1.63;;;;;;;;;;5015603;28;20029;-89
2021/05/25 06:01:00;;;;;;;2.13;0.82;;;;;;;;;;5031350;28;20029;-88
2021/05/25 06:03:26;;;;;;;3.53;1.00;;;;;;;;;;5042318;28;20513;-87
2021/05/25 06:05:52;;;;;;;1.02;0.73;;;;;;;;;;5045982;28;20089;-87
2021/05/25 06:08:18;;;;;;;4.95;0.80;;;;;;;;;;5038750;28;20669;-87
2021/05/25 06:10:51;;;;;;;5.50;1.10;;;;;;;;;;5040877;28;20088;-87
2021/05/25 06:13:21;;;;;;;1.73;0.75;;;;;;;;;;5033782;28;20028;-88
2021/05/25 06:15:47;;;;;;;1.63;0.75;;;;;;;;;;5032391;28;20136;-88
2021/05/25 06:18:14;;;;;;;3.35;0.70;;;;;;;;;;5048554;28;20021;-88
2021/05/25 06:20:40;;;;;;;2.17;0.80;;;;;;;;;;5046673;28;20091;-88
2021/05/25 06:23:06;;;;;;;0.95;0.73;;;;;;;;;;5033159;28;20091;-88
2021/05/25 06:25:32;;;;;;;1.90;0.63;;;;;;;;;;5035274;28;20123;-87
2021/05/25 06:27:58;;;;;;;2.22;0.80;;;;;;;;;;5026191;28;20041;-87
2021/05/25 06:30:24;;;;;;;4.03;0.90;;;;;;;;;;5033171;28;20052;-87
2021/05/25 06:32:50;;;;;;;3.65;1.17;;;;;;;;;;5032190;28;20171;-86
2021/05/25 06:35:16;;;;;;;1.05;0.80;;;;;;;;;;5043617;28;20022;-87
2021/05/25 06:37:43;;;;;;;7.13;0.93;;;;;;;;;;5034479;28;20367;-87
2021/05/25 06:40:09;;;;;;;2.95;0.63;;;;;;;;;;5034050;28;20025;-87
2021/05/25 06:42:35;;;;;;;2.45;0.60;;;;;;;;;;5028086;28;20029;-88
2021/05/25 06:45:01;;;;;;;1.75;0.65;;;;;;;;;;5031141;28;20068;-88
2021/05/25 06:47:27;;;;;;;1.48;0.68;;;;;;;;;;5041495;28;20029;-87
2021/05/25 06:49:54;;;;;;;1.63;0.60;;;;;;;;;;5033874;28;20022;-86
2021/05/25 06:52:20;;;;;;;1.02;0.55;;;;;;;;;;5033387;28;20022;-87
2021/05/25 06:54:46;;;;;;;4.13;0.88;;;;;;;;;;5039229;28;20031;-88
2021/05/25 06:57:12;;;;;;;0.82;0.60;;;;;;;;;;5033038;28;20030;-86
2021/05/25 06:59:38;;;;;;;5.78;0.80;;;;;;;;;;5045298;28;20026;-87
2021/05/25 07:02:04;;;;;;;3.80;0.55;;;;;;;;;;5033377;28;20029;-87
2021/05/25 07:04:30;;;;;;;4.68;0.70;;;;;;;;;;5034395;28;20025;-88
2021/05/25 07:06:56;;;;;;;3.25;0.60;;;;;;;;;;5035399;28;20121;-87
2021/05/25 07:09:22;;;;;;;2.20;0.57;;;;;;;;;;5037937;28;20050;-87
2021/05/25 07:11:49;;;;;;;3.65;0.75;;;;;;;;;;5031356;28;20082;-87
2021/05/25 07:14:15;;;;;;;1.73;0.75;;;;;;;;;;5038762;28;20097;-86
2021/05/25 07:16:41;;;;;;;1.10;0.50;;;;;;;;;;5041735;28;20120;-86
2021/05/25 07:19:07;;;;;;;1.00;0.60;;;;;;;;;;5042915;28;20071;-84
2021/05/25 07:21:33;;;;;;;1.42;0.68;;;;;;;;;;5031414;28;20091;-87
2021/05/25 07:24:00;;;;;;;3.17;0.70;;;;;;;;;;5031345;28;20504;-87
2021/05/25 07:26:27;;;;;;;3.83;1.00;;;;;;;;;;5030735;28;20414;-87
2021/05/25 07:28:53;;;;;;;1.13;0.60;;;;;;;;;;5032053;28;20096;-88
2021/05/25 07:31:19;;;;;;;2.78;0.63;;;;;;;;;;5034507;28;20037;-88
2021/05/25 07:33:45;;;;;;;3.10;0.80;;;;;;;;;;5031914;28;20033;-88
2021/05/25 07:36:12;;;;;;;3.35;0.77;;;;;;;;;;5039375;28;20026;-88
2021/05/25 07:38:38;;;;;;;1.42;0.55;;;;;;;;;;5030768;28;20029;-88
2021/05/25 07:41:04;;;;;;;3.30;0.70;;;;;;;;;;5035915;28;20036;-88
2021/05/25 07:43:31;;;;;;;1.38;0.93;;;;;;;;;;5032469;28;20387;-88
2021/05/25 07:45:57;;;;;;;2.03;0.60;;;;;;;;;;5029365;28;20030;-88
2021/05/25 07:48:23;;;;;;;4.72;0.82;;;;;;;;;;5030703;28;20038;-88
2021/05/25 07:50:49;;;;;;;0.95;0.68;;;;;;;;;;5032129;28;20065;-88
2021/05/25 07:53:15;;;;;;;2.13;0.70;;;;;;;;;;5032358;28;20025;-88
2021/05/25 07:55:41;;;;;;;3.22;0.60;;;;;;;;;;5039824;28;20022;-88
2021/05/25 07:58:08;;;;;;;2.17;0.70;;;;;;;;;;5031114;28;20061;-88
2021/05/25 08:00:34;;;;;;;2.55;0.70;;;;;;;;;;5040483;28;20025;-87
2021/05/25 08:03:00;;;;;;;3.30;0.70;;;;;;;;;;5051853;28;20022;-89
2021/05/25 08:05:32;;;;;;;2.78;0.60;;;;;;;;;;5041700;28;20056;-88
2021/05/25 08:07:59;;;;;;;2.20;0.70;;;;;;;;;;5042813;28;20057;-87
2021/05/25 08:10:25;;;;;;;4.28;0.63;;;;;;;;;;5046969;28;20037;-88
2021/05/25 08:12:51;;;;;;;1.33;0.60;;;;;;;;;;5041654;28;20033;-87
2021/05/25 08:15:18;;;;;;;6.05;0.70;;;;;;;;;;5029079;28;20432;-87
2021/05/25 08:20:17;;;;;;;1.05;0.30;;;;;;;;;;5040158;28;20490;-87
2021/05/25 08:22:51;;;;;;;0.52;0.43;;;;;;;;;;5031817;28;20382;-87
2021/05/25 08:25:18;;;;;;;0.50;0.50;;;;;;;;;;5033291;28;20025;-87
2021/05/25 08:27:47;;;;;;;0.52;0.40;;;;;;;;;;5031434;28;20080;-87
2021/05/25 08:30:14;;;;;;;0.95;0.40;;;;;;;;;;5046861;28;20053;-88
2021/05/25 08:32:40;;;;;;;1.25;0.50;;;;;;;;;;5031740;28;20029;-87
2021/05/25 08:35:07;;;;;;;1.35;0.50;;;;;;;;;;5018099;28;20036;-86
2021/05/25 08:37:33;;;;;;;0.80;0.43;;;;;;;;;;5047225;28;20077;-85
2021/05/25 08:39:59;;;;;;;0.32;0.32;;;;;;;;;;5044026;28;20041;-86
2021/05/25 08:42:26;;;;;;;1.48;0.60;;;;;;;;;;5029911;28;20032;-86
2021/05/25 08:44:52;;;;;;;0.32;0.32;;;;;;;;;;5024720;28;20017;-87
2021/05/25 08:47:18;;;;;;;1.02;0.50;;;;;;;;;;5028275;28;20512;-89
2021/05/25 08:49:45;;;;;;;1.70;0.50;;;;;;;;;;5031662;28;20029;-88
2021/05/25 08:52:11;;;;;;;0.98;0.40;;;;;;;;;;5039776;28;20061;-89
2021/05/25 08:54:40;;;;;;;1.23;0.60;;;;;;;;;;5033546;28;20034;-89
2021/05/25 08:57:07;;;;;;;1.10;0.50;;;;;;;;;;5029486;28;20042;-90
2021/05/25 08:59:33;;;;;;;2.25;0.80;;;;;;;;;;5029508;28;20017;-89
2021/05/25 09:01:59;;;;;;;1.50;0.50;;;;;;;;;;5030385;28;20097;-90
2021/05/25 09:04:25;;;;;;;3.63;0.70;;;;;;;;;;5039155;28;20105;-89
2021/05/25 09:06:51;;;;;;;2.28;0.50;;;;;;;;;;5038027;28;20030;-89
2021/05/25 09:09:20;;;;;;;0.30;0.30;;;;;;;;;;5035214;28;20046;-89
2021/05/25 09:12:02;;;;;;;0.60;0.30;;;;;;;;;;5028803;28;20468;-89
2021/05/25 09:14:28;;;;;;;1.33;0.60;;;;;;;;;;5025286;28;20029;-90
2021/05/25 09:17:13;;;;;;;0.90;0.30;;;;;;;;;;5032534;28;20024;-91
2021/05/25 09:20:09;;;;;;;0.30;0.30;;;;;;;;;;5033401;28;20034;-89
2021/05/25 09:22:42;;;;;;;1.25;0.47;;;;;;;;;;5014083;28;20022;-89
2021/05/25 09:25:23;;;;;;;0.55;0.40;;;;;;;;;;5042673;28;20060;-89
2021/05/25 09:28:00;;;;;;;1.75;0.45;;;;;;;;;;5040477;28;20041;-88
2021/05/25 09:30:29;;;;;;;0.40;0.40;;;;;;;;;;5034577;28;20397;-89
2021/05/25 09:33:06;;;;;;;1.48;0.50;;;;;;;;;;5038635;28;20064;-91
2021/05/25 09:35:36;;;;;;;0.60;0.40;;;;;;;;;;5033433;28;20100;-91
2021/05/25 09:38:12;;;;;;;1.40;0.52;;;;;;;;;;5033572;28;20026;-92
2021/05/25 09:40:39;;;;;;;2.10;0.40;;;;;;;;;;5032123;28;20480;-89
2021/05/25 09:43:25;;;;;;;0.43;0.40;;;;;;;;;;5034308;28;20037;-90
2021/05/25 09:46:03;;;;;;;0.95;0.50;;;;;;;;;;5035586;28;20032;-89
2021/05/25 09:48:30;;;;;;;;;;;;;;;;;;5032944;28;20041;-90
2021/05/25 09:50:57;;;;;;;1.13;0.50;;;;;;;;;;5024776;28;19906;-92
2021/05/25 09:53:24;;;;;;;1.05;0.50;;;;;;;;;;5039655;28;20025;-91
2021/05/25 09:55:52;;;;;;;2.30;0.30;;;;;;;;;;5030553;28;20017;-92
2021/05/25 09:58:19;;;;;;;1.02;0.40;;;;;;;;;;5035772;28;20688;-91
2021/05/25 10:00:46;;;;;;;0.88;0.30;;;;;;;;;;5023400;28;20030;-90
2021/05/25 10:03:15;;;;;;;0.70;0.60;;;;;;;;;;5029739;28;20161;-92
2021/05/25 10:05:43;;;;;;;1.35;0.60;;;;;;;;;;5026828;28;20544;-91
2021/05/25 10:08:10;;;;;;;1.52;0.60;;;;;;;;;;5029036;28;20049;-92
2021/05/25 10:10:36;;;;;;;2.97;0.60;;;;;;;;;;5029210;28;20034;-91
2021/05/25 10:13:02;;;;;;;0.38;0.30;;;;;;;;;;5034048;28;20025;-91
2021/05/25 10:15:30;;;;;;;1.55;0.43;;;;;;;;;;5027613;28;20038;-90
2021/05/25 10:20:26;;;;;;;0.75;0.47;;;;;;;;;;5032751;28;20401;-91
2021/05/25 10:22:52;;;;;;;0.43;0.40;;;;;;;;;;5025129;28;20032;-90
2021/05/25 10:25:19;;;;;;;0.45;0.40;;;;;;;;;;5030125;28;20454;-91
2021/05/25 10:27:46;;;;;;;2.47;0.60;;;;;;;;;;5037759;28;20087;-92
2021/05/25 10:30:22;;;;;;;1.08;0.40;;;;;;;;;;5035475;28;20014;-92
2021/05/25 10:32:49;;;;;;;1.23;0.60;;;;;;;;;;5044939;28;20018;-90
2021/05/25 10:35:18;;;;;;;0.40;0.40;;;;;;;;;;5047444;28;20064;-91
2021/05/25 10:38:03;;;;;;;0.95;0.40;;;;;;;;;;5043374;28;20002;-90
2021/05/25 10:40:42;;;;;;;0.35;0.17;;;;;;;;;;5040710;28;20070;-91
2021/05/25 10:43:27;;;;;;;1.30;0.50;;;;;;;;;;5027307;28;20030;-91
2021/05/25 10:46:13;;;;;;;1.90;0.45;;;;;;;;;;5031476;28;20025;-91
2021/05/25 10:49:16;;;;;;;0.60;0.40;;;;;;;;;;5031850;28;20037;-90
2021/05/25 10:51:48;;;;;;;0.80;0.47;;;;;;;;;;5031246;28;20041;-91
2021/05/25 10:54:29;;;;;;;1.13;0.32;;;;;;;;;;5035246;28;20029;-92
2021/05/25 10:56:56;;;;;;;1.20;0.60;;;;;;;;;;5026214;28;20048;-92
2021/05/25 10:59:22;;;;;;;0.88;0.40;;;;;;;;;;5034295;28;20037;-91
2021/05/25 11:01:58;;;;;;;1.77;0.40;;;;;;;;;;5036751;28;20071;-91
2021/05/25 11:04:44;;;;;;;3.22;0.52;;;;;;;;;;5038235;28;20033;-90
2021/05/25 11:07:29;;;;;;;0.60;0.28;;;;;;;;;;5029667;28;20461;-92
2021/05/25 11:10:15;;;;;;;0.47;0.45;;;;;;;;;;5038513;28;20038;-93
2021/05/25 11:12:41;;;;;;;1.23;0.60;;;;;;;;;;5044948;28;20079;-91
2021/05/25 11:15:13;;;;;;;1.25;0.40;;;;;;;;;;5044980;28;20434;-92
2021/05/25 11:17:39;;;;;;;0.85;0.50;;;;;;;;;;5051939;28;20026;-91
2021/05/25 11:20:24;;;;;;;0.90;0.50;;;;;;;;;;5057678;28;20013;-92
2021/05/25 11:22:50;;;;;;;1.50;0.55;;;;;;;;;;5043267;28;20040;-91
2021/05/25 11:25:36;;;;;;;0.63;0.40;;;;;;;;;;5041621;28;20029;-91
2021/05/25 11:28:03;;;;;;;0.70;0.43;;;;;;;;;;5036656;28;20126;-92
2021/05/25 11:30:31;;;;;;;1.25;0.60;;;;;;;;;;5041704;28;20026;-91
2021/05/25 11:32:57;;;;;;;0.60;0.40;;;;;;;;;;5039935;28;20026;-92
2021/05/25 11:35:25;;;;;;;0.60;0.40;;;;;;;;;;5034989;28;20052;-92
2021/05/25 11:37:53;;;;;;;1.10;0.57;;;;;;;;;;5041034;28;20060;-93
2021/05/25 11:40:24;;;;;;;0.40;0.30;;;;;;;;;;5029617;28;20053;-91
2021/05/25 11:42:50;;;;;;;3.05;0.60;;;;;;;;;;5035193;28;20036;-91
2021/05/25 11:45:22;;;;;;;0.98;0.50;;;;;;;;;;5029060;28;20022;-91
2021/05/25 11:47:55;;;;;;;0.77;0.47;;;;;;;;;;5030807;28;20068;-92
2021/05/25 11:50:22;;;;;;;1.05;0.60;;;;;;;;;;5043667;28;20021;-91
2021/05/25 11:52:52;;;;;;;1.38;0.50;;;;;;;;;;5032258;28;20062;-91
2021/05/25 11:55:19;;;;;;;2.15;0.40;;;;;;;;;;5040138;28;20014;-91
2021/05/25 11:57:46;;;;;;;0.73;0.40;;;;;;;;;;5031357;28;20037;-91
2021/05/25 12:00:13;;;;;;;1.08;0.50;;;;;;;;;;5039947;28;20025;-91
2021/05/25 12:02:39;;;;;;;1.17;0.60;;;;;;;;;;5038172;28;20372;-91
2021/05/25 12:05:08;;;;;;;0.85;0.55;;;;;;;;;;5038790;28;20041;-91
2021/05/25 12:07:34;;;;;;;0.50;0.35;;;;;;;;;;5044619;28;20040;-91
2021/05/25 12:10:02;;;;;;;0.82;0.50;;;;;;;;;;5034889;28;20053;-91
2021/05/25 12:12:29;;;;;;;1.67;0.47;;;;;;;;;;5039936;28;20021;-91
2021/05/25 12:15:10;;;;;;;0.87;0.40;;;;;;;;;;5040943;28;20027;-91
2021/05/25 12:17:38;;;;;;;0.98;0.45;;;;;;;;;;5032868;28;20289;-91
2021/05/25 12:20:04;;;;;;;1.30;0.60;;;;;;;;;;5048791;28;20030;-92
2021/05/25 12:22:38;;;;;;;1.08;0.40;;;;;;;;;;5048744;28;20033;-91
2021/05/25 12:25:14;;;;;;;0.65;0.50;;;;;;;;;;5036284;28;20029;-91
2021/05/25 12:27:41;;;;;;;0.60;0.50;;;;;;;;;;5038739;28;20103;-91
2021/05/25 12:30:08;;;;;;;1.27;0.37;;;;;;;;;;5034929;28;20207;-91
2021/05/25 12:32:34;;;;;;;0.85;0.45;;;;;;;;;;5046591;28;20017;-90
2021/05/25 12:35:01;;;;;;;0.40;0.30;;;;;;;;;;5042918;28;20500;-90
2021/05/25 12:37:27;;;;;;;1.15;0.40;;;;;;;;;;5038814;28;20466;-91
2021/05/25 12:40:21;;;;;;;0.43;0.38;;;;;;;;;;5038717;28;20053;-91
2021/05/25 12:42:47;;;;;;;0.95;0.40;;;;;;;;;;5029096;28;20044;-91
2021/05/25 12:45:14;;;;;;;0.90;0.40;;;;;;;;;;5033713;28;20030;-91
2021/05/25 12:47:53;;;;;;;0.85;0.30;;;;;;;;;;5038584;28;20025;-90
2021/05/25 12:50:26;;;;;;;0.57;0.50;;;;;;;;;;5030447;28;20040;-91
2021/05/25 12:53:10;;;;;;;1.25;0.50;;;;;;;;;;5030681;28;20024;-91
2021/05/25 12:55:39;;;;;;;2.00;0.70;;;;;;;;;;5028826;28;20037;-91
2021/05/25 12:58:05;;;;;;;1.77;0.50;;;;;;;;;;5036014;28;20034;-91
2021/05/25 13:00:37;;;;;;;0.98;0.52;;;;;;;;;;5029904;28;20037;-91
2021/05/25 13:03:05;;;;;;;2.05;0.40;;;;;;;;;;5028794;28;20018;-90
2021/05/25 13:05:36;;;;;;;0.28;0.25;;;;;;;;;;5029512;28;20060;-90
2021/05/25 13:08:04;;;;;;;1.17;0.40;;;;;;;;;;5052160;28;20021;-91
2021/05/25 13:10:35;;;;;;;1.63;0.55;;;;;;;;;;5052195;28;20084;-91
2021/05/25 13:13:13;;;;;;;1.27;0.52;;;;;;;;;;5052039;28;20021;-92
2021/05/25 13:15:40;;;;;;;1.10;0.32;;;;;;;;;;5040010;28;20033;-91
2021/05/25 13:18:09;;;;;;;0.60;0.30;;;;;;;;;;5043001;28;20026;-89
2021/05/25 13:20:35;;;;;;;1.25;0.30;;;;;;;;;;5035841;28;20021;-93
2021/05/25 13:23:01;;;;;;;0.85;0.45;;;;;;;;;;5032681;28;20030;-92
2021/05/25 13:25:31;;;;;;;0.50;0.38;;;;;;;;;;5040910;28;20022;-89
2021/05/25 13:27:57;;;;;;;0.40;0.32;;;;;;;;;;5038590;28;20041;-91
2021/05/25 13:30:44;;;;;;;0.43;0.43;;;;;;;;;;5038467;28;20029;-90
2021/05/25 13:33:10;;;;;;;0.98;0.45;;;;;;;;;;5045443;28;20036;-89
2021/05/25 13:35:36;;;;;;;0.30;0.22;;;;;;;;;;5053037;28;20018;-90
2021/05/25 13:38:05;;;;;;;2.90;0.50;;;;;;;;;;5033370;28;20141;-91
2021/05/25 13:40:32;;;;;;;0.35;0.30;;;;;;;;;;5032205;28;20033;-91
2021/05/25 13:42:58;;;;;;;0.60;0.30;;;;;;;;;;5020309;28;20390;-91
2021/05/25 13:45:24;;;;;;;5.55;0.55;;;;;;;;;;5029997;28;20446;-91
2021/05/25 13:47:51;;;;;;;1.75;0.50;;;;;;;;;;5033033;28;20072;-90
2021/05/25 13:50:24;;;;;;;0.47;0.30;;;;;;;;;;5034891;28;20376;-90
2021/05/25 13:52:54;;;;;;;1.13;0.40;;;;;;;;;;5034082;28;20029;-90
2021/05/25 13:55:23;;;;;;;0.57;0.30;;;;;;;;;;5033694;28;20044;-91
2021/05/25 13:57:49;;;;;;;1.02;0.47;;;;;;;;;;5045404;28;20034;-91
2021/05/25 14:00:31;;;;;;;1.20;0.30;;;;;;;;;;5034764;28;20037;-90
2021/05/25 14:02:56;;;;;;;0.40;0.40;;;;;;;;;;5035960;28;20053;-91
2021/05/25 14:05:22;;;;;;;0.68;0.40;;;;;;;;;;5034202;28;20036;-90
2021/05/25 14:07:52;;;;;;;0.57;0.30;;;;;;;;;;5044117;28;20502;-91
2021/05/25 14:10:18;;;;;;;0.85;0.40;;;;;;;;;;5036712;28;20063;-91
2021/05/25 14:12:44;;;;;;;0.80;0.40;;;;;;;;;;5041112;28;20026;-93
2021/05/25 14:15:10;;;;;;;0.60;0.43;;;;;;;;;;5033247;28;20049;-90
2021/05/25 14:17:36;;;;;;;1.40;0.30;;;;;;;;;;5034774;28;20084;-91
2021/05/25 14:20:03;;;;;;;5.03;0.55;;;;;;;;;;5048790;28;20045;-91
2021/05/25 14:22:29;;;;;;;1.08;0.50;;;;;;;;;;5042796;28;20017;-90
2021/05/25 14:24:55;;;;;;;0.88;0.50;;;;;;;;;;5045569;28;20124;-88
2021/05/25 14:27:21;;;;;;;0.90;0.32;;;;;;;;;;5051100;28;20025;-90
2021/05/25 14:29:48;;;;;;;0.88;0.47;;;;;;;;;;5034363;28;20029;-92
2021/05/25 14:32:14;;;;;;;1.48;0.40;;;;;;;;;;5034246;28;20040;-91
2021/05/25 14:34:41;;;;;;;1.15;0.50;;;;;;;;;;5039731;28;20394;-90
2021/05/25 14:37:07;;;;;;;1.08;0.50;;;;;;;;;;5034453;28;20048;-91
2021/05/25 14:39:33;;;;;;;1.98;0.60;;;;;;;;;;5037187;28;20029;-92
2021/05/25 14:41:59;;;;;;;1.52;0.40;;;;;;;;;;5039196;28;20032;-92
2021/05/25 14:44:25;;;;;;;1.30;0.50;;;;;;;;;;5032426;28;20026;-92
2021/05/25 14:46:52;;;;;;;1.25;0.40;;;;;;;;;;5032557;28;20025;-92
2021/05/25 14:49:18;;;;;;;1.98;1.00;;;;;;;;;;5036772;28;20037;-91
2021/05/25 14:51:44;;;;;;;1.85;0.52;;;;;;;;;;5031842;28;20462;-91
2021/05/25 14:54:10;;;;;;;2.60;0.50;;;;;;;;;;5037737;28;20045;-92